Terminal Aerodrome Forecast
Issued by NWS Sioux Falls, SD

Home | Current Version | Previous Version | Text Only | Print | Product List | Glossary On
Versions: 1 2 3 4 5 6 7 8 9 10 11 12 13 14 15 16 17
000
FTUS43 KFSD 201739
TAFFSD
TAF
KFSD 201739Z 2018/2118 30011KT P6SM SCT170
     FM202100 25007KT P6SM FEW170
     FM210000 18005KT P6SM SKC
     FM210600 09005KT P6SM SKC
     FM211500 14013KT P6SM SCT150
     FM211700 15014G23KT P6SM BKN030=

USA.gov is the U.S. government's official web portal to all federal, state and local government web resources and services.